createdAt,value
2022-07-27T00:00:45.683Z,1.00
2022-07-27T00:03:45.389Z,1.20
2022-07-27T00:10:36.726Z,1.10
2022-07-27T00:33:35.360Z,0.90
2022-07-27T00:36:15.340Z,1.88
2022-07-27T00:42:21.135Z,1.10
2022-07-27T01:06:04.703Z,1.75
2022-07-27T01:09:31.905Z,1.15
2022-07-27T01:12:46.554Z,1.25
2022-07-27T01:18:48.247Z,1.15
2022-07-27T01:21:43.664Z,1.10
2022-07-27T01:30:37.812Z,1.10
2022-07-27T01:36:32.606Z,1.50
2022-07-27T01:39:14.500Z,1.27
2022-07-27T01:41:59.003Z,1.30
2022-07-27T01:47:31.512Z,1.63
2022-07-27T01:50:18.638Z,1.42
2022-07-27T01:53:13.212Z,1.40
2022-07-27T01:56:01.427Z,1.58
2022-07-27T01:59:00.568Z,1.20
2022-07-27T02:11:47.599Z,1.30
2022-07-27T02:14:40.138Z,1.20
2022-07-27T02:17:23.153Z,1.23
2022-07-27T02:20:46.164Z,1.48
2022-07-27T02:26:42.357Z,2.10
2022-07-27T02:29:30.558Z,1.38
2022-07-27T02:32:10.208Z,1.70
2022-07-27T02:34:43.274Z,1.73
2022-07-27T02:37:24.802Z,1.33
2022-07-27T02:42:48.440Z,1.38
2022-07-27T02:45:34.839Z,1.10
2022-07-27T02:48:37.183Z,1.90
2022-07-27T02:54:36.143Z,1.50
2022-07-27T02:57:39.460Z,1.55
2022-07-27T03:14:52.158Z,2.05
2022-07-27T03:17:22.841Z,1.70
2022-07-27T03:20:11.923Z,1.33
2022-07-27T03:22:53.893Z,1.75
2022-07-27T03:25:24.495Z,1.63
2022-07-27T03:28:04.025Z,1.30
2022-07-27T03:30:43.971Z,1.63
2022-07-27T03:33:17.829Z,1.10
2022-07-27T03:36:00.744Z,1.20
2022-07-27T03:38:35.228Z,1.65
2022-07-27T03:41:26.392Z,1.40
2022-07-27T03:44:05.154Z,1.85
2022-07-27T03:46:56.661Z,1.70
2022-07-27T03:53:17.073Z,1.33
2022-07-27T03:56:30.302Z,1.42
2022-07-27T03:59:27.677Z,1.95
2022-07-27T04:02:14.624Z,1.23
2022-07-27T04:08:07.773Z,1.10
2022-07-27T04:10:43.281Z,1.42
2022-07-27T04:16:43.316Z,1.77
2022-07-27T04:19:27.077Z,1.30
2022-07-27T04:21:54.229Z,1.20
2022-07-27T04:27:34.353Z,1.20
2022-07-27T04:32:47.592Z,1.10
2022-07-27T04:35:32.900Z,1.20
2022-07-27T04:38:25.555Z,1.27
2022-07-27T04:41:05.324Z,1.90
2022-07-27T04:43:49.955Z,1.25
2022-07-27T04:56:29.787Z,1.35
2022-07-27T05:04:33.421Z,1.45
2022-07-27T05:07:08.470Z,1.38
2022-07-27T05:13:08.696Z,1.55
2022-07-27T05:16:11.643Z,1.27
2022-07-27T05:18:59.089Z,1.50
2022-07-27T05:28:12.737Z,1.73
2022-07-27T05:31:04.899Z,1.92
2022-07-27T05:57:07.465Z,1.88
2022-07-27T06:09:53.674Z,1.73
2022-07-27T06:12:30.101Z,1.45
2022-07-27T06:15:20.510Z,2.13
2022-07-27T06:22:17.474Z,2.20
2022-07-27T06:31:25.564Z,1.63
2022-07-27T07:04:40.345Z,1.13
2022-07-27T07:10:26.462Z,0.88
2022-07-27T07:29:55.429Z,0.90
2022-07-27T07:32:33.414Z,1.00
2022-07-27T08:01:26.804Z,0.98
2022-07-27T08:10:23.344Z,0.90
2022-07-27T08:13:22.642Z,1.10
2022-07-27T08:16:22.937Z,0.98
2022-07-27T08:19:11.980Z,1.00
2022-07-27T08:22:02.852Z,1.33
2022-07-27T08:31:52.582Z,1.27
2022-07-27T08:38:41.091Z,1.60
2022-07-27T09:09:04.561Z,1.00
2022-07-27T09:11:40.723Z,1.10
2022-07-27T09:14:23.811Z,1.00
2022-07-27T09:17:46.063Z,1.00
2022-07-27T09:23:29.761Z,1.30
2022-07-27T09:26:44.041Z,0.70
2022-07-27T09:29:45.259Z,0.85
2022-07-27T09:32:17.787Z,1.30
2022-07-27T09:34:45.596Z,0.80
2022-07-27T09:37:31.857Z,0.90
2022-07-27T09:40:36.927Z,0.88
2022-07-27T09:47:00.261Z,0.70
2022-07-27T09:52:34.468Z,1.20
2022-07-27T09:55:03.954Z,1.20
2022-07-27T09:58:15.492Z,0.88
2022-07-27T10:00:57.979Z,1.10
2022-07-27T10:03:41.101Z,0.68
2022-07-27T10:06:13.439Z,1.13
2022-07-27T10:08:57.719Z,1.20
2022-07-27T10:11:30.473Z,0.80
2022-07-27T10:14:02.248Z,0.75
2022-07-27T10:16:39.881Z,0.77
2022-07-27T10:36:00.888Z,0.60
2022-07-27T10:38:29.223Z,1.05
2022-07-27T10:39:35.684Z,1.00
2022-07-27T10:43:18.767Z,1.02
2022-07-27T10:49:50.638Z,0.75
2022-07-27T11:07:23.109Z,0.57
2022-07-27T11:48:56.410Z,0.55
2022-07-27T11:51:43.159Z,0.40
2022-07-27T11:54:48.146Z,0.95
2022-07-27T12:06:21.681Z,0.50
2022-07-27T12:26:19.065Z,0.80
2022-07-27T12:52:27.867Z,0.70
2022-07-27T12:55:26.748Z,0.55
2022-07-27T12:58:29.645Z,0.60
2022-07-27T13:01:27.068Z,0.85
2022-07-27T13:07:58.976Z,0.50
2022-07-27T13:52:18.561Z,0.70
2022-07-27T13:55:16.981Z,0.80
2022-07-27T14:08:11.384Z,0.95
2022-07-27T14:50:03.525Z,0.60
2022-07-27T15:50:26.850Z,0.88
2022-07-27T15:52:56.549Z,0.80
2022-07-27T15:55:23.340Z,1.13
2022-07-27T15:57:50.119Z,0.70
2022-07-27T16:00:17.057Z,0.88
2022-07-27T16:02:44.699Z,0.60
2022-07-27T16:05:11.769Z,0.88
2022-07-27T16:07:41.496Z,0.82
2022-07-27T16:10:09.416Z,0.70
2022-07-27T16:12:38.457Z,0.47
2022-07-27T16:15:06.175Z,0.80
2022-07-27T16:17:32.917Z,0.70
2022-07-27T16:19:59.631Z,1.02
2022-07-27T16:22:26.318Z,1.17
2022-07-27T16:24:54.429Z,0.85
2022-07-27T16:27:21.196Z,0.88
2022-07-27T16:29:48.242Z,0.85
2022-07-27T16:32:14.952Z,0.60
2022-07-27T16:34:41.736Z,0.60
2022-07-27T16:37:08.464Z,0.82
2022-07-27T16:39:35.199Z,0.70
2022-07-27T16:42:03.810Z,0.60
2022-07-27T16:44:30.804Z,0.60
2022-07-27T16:46:57.810Z,0.60
2022-07-27T16:49:34.569Z,0.45
2022-07-27T16:52:04.225Z,0.60
2022-07-27T16:54:39.335Z,0.88
2022-07-27T16:57:08.404Z,0.60
2022-07-27T16:59:35.275Z,0.43
2022-07-27T17:02:02.375Z,0.70
2022-07-27T17:04:30.772Z,0.68
2022-07-27T17:06:57.693Z,1.15
2022-07-27T17:09:24.420Z,0.60
2022-07-27T17:11:51.208Z,0.40
2022-07-27T17:14:22.574Z,0.50
2022-07-27T17:16:51.909Z,0.65
2022-07-27T17:19:19.853Z,0.88
2022-07-27T17:21:47.798Z,0.68
2022-07-27T17:24:14.518Z,0.70
2022-07-27T17:26:41.482Z,0.75
2022-07-27T17:29:08.526Z,0.55
2022-07-27T17:31:38.334Z,0.63
2022-07-27T17:34:07.575Z,0.82
2022-07-27T17:36:34.699Z,0.50
2022-07-27T17:39:01.628Z,0.73
2022-07-27T17:41:28.965Z,1.02
2022-07-27T17:43:55.775Z,1.25
2022-07-27T17:46:23.232Z,0.68
2022-07-27T18:00:37.870Z,0.50
2022-07-27T18:03:15.036Z,0.90
2022-07-27T18:05:59.746Z,0.73
2022-07-27T18:12:43.569Z,0.60
2022-07-27T19:10:15.717Z,0.90
2022-07-27T19:16:26.729Z,0.60
2022-07-27T20:15:24.008Z,1.00
2022-07-27T21:20:37.507Z,1.48
2022-07-27T21:30:17.976Z,1.20
2022-07-27T21:36:12.350Z,1.15
2022-07-27T21:38:58.351Z,0.90
2022-07-27T21:45:13.577Z,0.88
2022-07-27T21:53:58.591Z,1.42
2022-07-27T21:56:50.866Z,1.27
2022-07-27T22:02:54.401Z,0.97
2022-07-27T22:09:02.623Z,1.17
2022-07-27T22:12:02.134Z,1.40
2022-07-27T22:14:33.076Z,3.13
2022-07-27T22:17:15.983Z,1.77
2022-07-27T22:23:55.946Z,1.35
2022-07-27T22:36:24.646Z,1.30
2022-07-27T22:42:09.701Z,1.85
2022-07-27T22:44:53.181Z,1.60
2022-07-27T22:47:54.555Z,1.67
2022-07-27T23:01:00.072Z,1.25
2022-07-27T23:03:46.273Z,1.40
2022-07-27T23:06:39.532Z,1.88
2022-07-27T23:09:42.909Z,1.20
2022-07-27T23:16:11.725Z,1.33
2022-07-27T23:18:41.142Z,1.33
2022-07-27T23:21:13.561Z,1.75
2022-07-27T23:23:54.369Z,1.23
2022-07-27T23:26:26.399Z,1.35
2022-07-27T23:29:08.038Z,1.60
2022-07-27T23:31:37.560Z,1.50
2022-07-27T23:34:06.153Z,1.40
2022-07-27T23:36:52.535Z,1.27
2022-07-27T23:39:22.571Z,1.77
2022-07-27T23:42:09.535Z,1.10
2022-07-27T23:44:53.202Z,1.10
2022-07-27T23:47:29.747Z,1.35
2022-07-27T23:49:58.971Z,1.10
2022-07-27T23:52:39.221Z,1.73
2022-07-27T23:55:18.281Z,1.60
2022-07-27T23:58:09.857Z,1.50
